sensor_id;sensor_type;location;lat;lon;timestamp;pressure;altitude;pressure_sealevel;temperature;humidity
47742;BME280;33504;52.066;6.096;2022-11-18T00:00:29;99477.63;;;10.73;49.12
47742;BME280;33504;52.066;6.096;2022-11-18T00:02:56;99480.20;;;10.72;49.09
47742;BME280;33504;52.066;6.096;2022-11-18T00:05:23;99482.90;;;10.76;49.07
47742;BME280;33504;52.066;6.096;2022-11-18T00:07:49;99484.37;;;11.26;49.11
47742;BME280;33504;52.066;6.096;2022-11-18T00:10:17;99486.91;;;10.72;49.26
47742;BME280;33504;52.066;6.096;2022-11-18T00:12:44;99487.54;;;10.78;49.16
47742;BME280;33504;52.066;6.096;2022-11-18T00:15:11;99489.15;;;10.73;49.30
47742;BME280;33504;52.066;6.096;2022-11-18T00:17:38;99492.81;;;11.09;49.13
47742;BME280;33504;52.066;6.096;2022-11-18T00:20:06;99494.18;;;10.87;49.73
47742;BME280;33504;52.066;6.096;2022-11-18T00:22:32;99496.56;;;10.40;49.72
47742;BME280;33504;52.066;6.096;2022-11-18T00:24:59;99500.67;;;10.71;49.44
47742;BME280;33504;52.066;6.096;2022-11-18T00:27:28;99504.96;;;10.79;49.27
47742;BME280;33504;52.066;6.096;2022-11-18T00:29:55;99509.19;;;10.60;49.70
47742;BME280;33504;52.066;6.096;2022-11-18T00:32:23;99513.35;;;10.91;49.25
47742;BME280;33504;52.066;6.096;2022-11-18T00:34:50;99514.85;;;10.83;49.30
47742;BME280;33504;52.066;6.096;2022-11-18T00:37:17;99517.60;;;10.94;49.14
47742;BME280;33504;52.066;6.096;2022-11-18T00:39:44;99521.16;;;10.79;49.30
47742;BME280;33504;52.066;6.096;2022-11-18T00:42:11;99522.44;;;10.99;49.12
47742;BME280;33504;52.066;6.096;2022-11-18T00:44:38;99522.69;;;11.06;48.98
47742;BME280;33504;52.066;6.096;2022-11-18T00:47:05;99526.96;;;10.90;49.13
47742;BME280;33504;52.066;6.096;2022-11-18T00:49:32;99529.01;;;11.11;49.19
47742;BME280;33504;52.066;6.096;2022-11-18T00:51:59;99528.43;;;10.93;49.14
47742;BME280;33504;52.066;6.096;2022-11-18T00:54:26;99530.71;;;10.96;49.09
47742;BME280;33504;52.066;6.096;2022-11-18T00:56:53;99532.76;;;11.03;49.01
47742;BME280;33504;52.066;6.096;2022-11-18T00:59:20;99536.84;;;11.01;48.92
47742;BME280;33504;52.066;6.096;2022-11-18T01:01:47;99537.94;;;10.95;48.95
47742;BME280;33504;52.066;6.096;2022-11-18T01:04:14;99541.38;;;10.76;49.27
47742;BME280;33504;52.066;6.096;2022-11-18T01:06:42;99540.73;;;11.37;49.08
47742;BME280;33504;52.066;6.096;2022-11-18T01:09:09;99542.66;;;10.93;49.07
47742;BME280;33504;52.066;6.096;2022-11-18T01:11:35;99544.94;;;11.41;49.06
47742;BME280;33504;52.066;6.096;2022-11-18T01:14:02;99547.17;;;10.94;48.98
47742;BME280;33504;52.066;6.096;2022-11-18T01:16:29;99549.63;;;10.93;49.10
47742;BME280;33504;52.066;6.096;2022-11-18T01:18:56;99550.22;;;10.97;49.00
47742;BME280;33504;52.066;6.096;2022-11-18T01:21:23;99552.28;;;11.24;48.95
47742;BME280;33504;52.066;6.096;2022-11-18T01:23:50;99553.27;;;10.94;49.00
47742;BME280;33504;52.066;6.096;2022-11-18T01:26:17;99554.69;;;10.96;49.03
47742;BME280;33504;52.066;6.096;2022-11-18T01:28:44;99554.26;;;10.94;49.00
47742;BME280;33504;52.066;6.096;2022-11-18T01:31:14;99557.61;;;10.94;48.98
47742;BME280;33504;52.066;6.096;2022-11-18T01:33:41;99559.37;;;11.17;49.00
47742;BME280;33504;52.066;6.096;2022-11-18T01:36:17;99560.61;;;10.70;48.90
47742;BME280;33504;52.066;6.096;2022-11-18T01:38:45;99562.97;;;10.91;48.91
47742;BME280;33504;52.066;6.096;2022-11-18T01:41:13;99566.33;;;10.90;48.89
47742;BME280;33504;52.066;6.096;2022-11-18T01:43:58;99569.97;;;11.14;48.83
47742;BME280;33504;52.066;6.096;2022-11-18T01:46:27;99574.07;;;10.81;48.87
47742;BME280;33504;52.066;6.096;2022-11-18T01:48:58;99575.81;;;10.81;48.92
47742;BME280;33504;52.066;6.096;2022-11-18T01:51:28;99577.76;;;10.81;48.97
47742;BME280;33504;52.066;6.096;2022-11-18T01:54:00;99577.58;;;10.80;49.05
47742;BME280;33504;52.066;6.096;2022-11-18T01:56:35;99578.45;;;10.82;49.09
47742;BME280;33504;52.066;6.096;2022-11-18T01:59:07;99578.58;;;11.09;49.07
47742;BME280;33504;52.066;6.096;2022-11-18T02:01:34;99580.99;;;10.82;49.07
47742;BME280;33504;52.066;6.096;2022-11-18T02:04:02;99585.88;;;10.82;49.07
47742;BME280;33504;52.066;6.096;2022-11-18T02:06:30;99586.47;;;10.82;49.08
47742;BME280;33504;52.066;6.096;2022-11-18T02:08:58;99592.68;;;10.85;49.11
47742;BME280;33504;52.066;6.096;2022-11-18T02:11:25;99596.70;;;11.12;49.02
47742;BME280;33504;52.066;6.096;2022-11-18T02:13:51;99602.74;;;10.84;49.05
47742;BME280;33504;52.066;6.096;2022-11-18T02:16:23;99606.70;;;10.81;49.07
47742;BME280;33504;52.066;6.096;2022-11-18T02:18:56;99609.09;;;10.81;49.20
47742;BME280;33504;52.066;6.096;2022-11-18T02:21:34;99611.94;;;10.80;49.23
47742;BME280;33504;52.066;6.096;2022-11-18T02:24:24;99614.16;;;11.29;49.25
47742;BME280;33504;52.066;6.096;2022-11-18T02:28:14;99614.67;;;11.46;49.28
47742;BME280;33504;52.066;6.096;2022-11-18T02:30:52;99617.60;;;10.70;49.28
47742;BME280;33504;52.066;6.096;2022-11-18T02:33:23;99617.86;;;10.72;49.14
47742;BME280;33504;52.066;6.096;2022-11-18T02:35:56;99619.24;;;10.72;49.07
47742;BME280;33504;52.066;6.096;2022-11-18T02:38:30;99623.12;;;10.69;49.14
47742;BME280;33504;52.066;6.096;2022-11-18T02:41:03;99620.34;;;10.96;49.30
47742;BME280;33504;52.066;6.096;2022-11-18T02:43:34;99624.95;;;10.70;49.36
47742;BME280;33504;52.066;6.096;2022-11-18T02:46:06;99629.04;;;10.73;49.39
47742;BME280;33504;52.066;6.096;2022-11-18T02:48:38;99629.53;;;10.75;49.37
47742;BME280;33504;52.066;6.096;2022-11-18T02:51:07;99633.27;;;10.76;49.34
47742;BME280;33504;52.066;6.096;2022-11-18T02:53:37;99632.62;;;11.27;49.31
47742;BME280;33504;52.066;6.096;2022-11-18T02:56:06;99634.69;;;10.77;49.31
47742;BME280;33504;52.066;6.096;2022-11-18T02:58:34;99633.59;;;10.75;49.36
47742;BME280;33504;52.066;6.096;2022-11-18T03:01:01;99635.42;;;10.78;49.34
47742;BME280;33504;52.066;6.096;2022-11-18T03:03:30;99640.07;;;10.75;49.28
47742;BME280;33504;52.066;6.096;2022-11-18T03:06:06;99640.65;;;10.70;49.13
47742;BME280;33504;52.066;6.096;2022-11-18T03:08:38;99644.71;;;10.68;49.14
47742;BME280;33504;52.066;6.096;2022-11-18T03:11:13;99649.68;;;10.67;49.16
47742;BME280;33504;52.066;6.096;2022-11-18T03:13:49;99655.10;;;10.64;49.26
47742;BME280;33504;52.066;6.096;2022-11-18T03:16:24;99660.22;;;10.62;49.31
47742;BME280;33504;52.066;6.096;2022-11-18T03:18:58;99660.93;;;11.12;49.37
47742;BME280;33504;52.066;6.096;2022-11-18T03:21:32;99666.03;;;10.91;49.48
47742;BME280;33504;52.066;6.096;2022-11-18T03:24:08;99669.01;;;10.68;49.46
47742;BME280;33504;52.066;6.096;2022-11-18T03:26:39;99668.43;;;10.70;49.44
47742;BME280;33504;52.066;6.096;2022-11-18T03:29:14;99670.85;;;10.96;49.45
47742;BME280;33504;52.066;6.096;2022-11-18T03:31:46;99672.46;;;10.99;49.52
47742;BME280;33504;52.066;6.096;2022-11-18T03:34:18;99674.51;;;10.74;49.51
47742;BME280;33504;52.066;6.096;2022-11-18T03:36:50;99675.16;;;10.74;49.45
47742;BME280;33504;52.066;6.096;2022-11-18T03:39:19;99677.76;;;10.75;49.55
47742;BME280;33504;52.066;6.096;2022-11-18T03:41:53;99680.02;;;11.05;49.57
47742;BME280;33504;52.066;6.096;2022-11-18T03:44:26;99685.74;;;11.04;49.52
47742;BME280;33504;52.066;6.096;2022-11-18T03:46:59;99685.65;;;11.03;49.59
47742;BME280;33504;52.066;6.096;2022-11-18T03:49:30;99688.61;;;11.27;49.58
47742;BME280;33504;52.066;6.096;2022-11-18T03:52:03;99693.83;;;10.77;49.51
47742;BME280;33504;52.066;6.096;2022-11-18T03:54:35;99699.54;;;10.77;49.57
47742;BME280;33504;52.066;6.096;2022-11-18T03:57:09;99701.05;;;10.77;49.60
47742;BME280;33504;52.066;6.096;2022-11-18T03:59:42;99700.44;;;10.78;49.69
47742;BME280;33504;52.066;6.096;2022-11-18T04:02:12;99701.94;;;10.79;49.71
47742;BME280;33504;52.066;6.096;2022-11-18T04:04:41;99704.55;;;11.07;49.68
47742;BME280;33504;52.066;6.096;2022-11-18T04:07:16;99707.38;;;11.09;49.74
47742;BME280;33504;52.066;6.096;2022-11-18T04:09:52;99710.98;;;10.83;49.78
47742;BME280;33504;52.066;6.096;2022-11-18T04:12:22;99713.36;;;10.85;49.77
47742;BME280;33504;52.066;6.096;2022-11-18T04:14:52;99716.90;;;11.10;49.80
47742;BME280;33504;52.066;6.096;2022-11-18T04:17:21;99719.66;;;10.84;49.81
47742;BME280;33504;52.066;6.096;2022-11-18T04:19:50;99718.79;;;10.87;49.85
47742;BME280;33504;52.066;6.096;2022-11-18T04:22:17;99722.60;;;10.90;49.84
47742;BME280;33504;52.066;6.096;2022-11-18T04:24:43;99722.26;;;11.39;49.82
47742;BME280;33504;52.066;6.096;2022-11-18T04:27:11;99724.67;;;10.93;49.80
47742;BME280;33504;52.066;6.096;2022-11-18T04:29:38;99725.99;;;10.95;49.84
47742;BME280;33504;52.066;6.096;2022-11-18T04:32:05;99729.74;;;10.95;49.93
47742;BME280;33504;52.066;6.096;2022-11-18T04:34:32;99733.58;;;10.96;49.98
47742;BME280;33504;52.066;6.096;2022-11-18T04:36:59;99738.31;;;10.95;50.04
47742;BME280;33504;52.066;6.096;2022-11-18T04:39:27;99741.16;;;10.93;50.00
47742;BME280;33504;52.066;6.096;2022-11-18T04:41:54;99744.65;;;10.96;49.87
47742;BME280;33504;52.066;6.096;2022-11-18T04:44:22;99748.60;;;11.00;49.89
47742;BME280;33504;52.066;6.096;2022-11-18T04:46:49;99750.79;;;11.01;49.80
47742;BME280;33504;52.066;6.096;2022-11-18T04:49:16;99753.58;;;11.04;49.66
47742;BME280;33504;52.066;6.096;2022-11-18T04:51:44;99758.88;;;11.05;49.63
47742;BME280;33504;52.066;6.096;2022-11-18T04:54:13;99758.68;;;11.09;49.74
47742;BME280;33504;52.066;6.096;2022-11-18T04:56:41;99762.14;;;11.10;49.85
47742;BME280;33504;52.066;6.096;2022-11-18T04:59:10;99763.41;;;11.13;49.92
47742;BME280;33504;52.066;6.096;2022-11-18T05:01:38;99763.82;;;11.10;50.09
47742;BME280;33504;52.066;6.096;2022-11-18T05:04:06;99764.05;;;11.12;50.09
47742;BME280;33504;52.066;6.096;2022-11-18T05:06:33;99764.90;;;11.14;50.18
47742;BME280;33504;52.066;6.096;2022-11-18T05:09:00;99768.29;;;11.18;50.11
47742;BME280;33504;52.066;6.096;2022-11-18T05:11:28;99766.79;;;11.18;50.15
47742;BME280;33504;52.066;6.096;2022-11-18T05:13:55;99769.40;;;11.16;50.07
47742;BME280;33504;52.066;6.096;2022-11-18T05:16:22;99770.77;;;11.08;49.99
47742;BME280;33504;52.066;6.096;2022-11-18T05:18:48;99774.57;;;10.95;50.48
47742;BME280;33504;52.066;6.096;2022-11-18T05:21:15;99780.81;;;11.08;50.53
47742;BME280;33504;52.066;6.096;2022-11-18T05:23:42;99783.16;;;11.03;50.64
47742;BME280;33504;52.066;6.096;2022-11-18T05:26:10;99785.66;;;11.05;50.73
47742;BME280;33504;52.066;6.096;2022-11-18T05:28:38;99790.47;;;11.13;50.61
47742;BME280;33504;52.066;6.096;2022-11-18T05:31:06;99796.59;;;10.83;51.66
47742;BME280;33504;52.066;6.096;2022-11-18T05:33:34;99794.55;;;10.99;51.25
47742;BME280;33504;52.066;6.096;2022-11-18T05:36:03;99799.56;;;10.85;51.12
47742;BME280;33504;52.066;6.096;2022-11-18T05:38:31;99801.48;;;11.12;51.07
47742;BME280;33504;52.066;6.096;2022-11-18T05:40:58;99804.38;;;11.26;50.65
47742;BME280;33504;52.066;6.096;2022-11-18T05:43:25;99806.84;;;11.23;50.72
47742;BME280;33504;52.066;6.096;2022-11-18T05:45:52;99807.00;;;11.29;50.77
47742;BME280;33504;52.066;6.096;2022-11-18T05:48:19;99807.64;;;11.18;51.15
47742;BME280;33504;52.066;6.096;2022-11-18T05:50:48;99811.04;;;10.92;51.92
47742;BME280;33504;52.066;6.096;2022-11-18T05:53:16;99816.81;;;10.96;51.87
47742;BME280;33504;52.066;6.096;2022-11-18T05:55:49;99817.55;;;10.86;52.22
47742;BME280;33504;52.066;6.096;2022-11-18T05:58:19;99821.90;;;11.04;51.96
47742;BME280;33504;52.066;6.096;2022-11-18T06:00:47;99823.58;;;10.87;52.38
47742;BME280;33504;52.066;6.096;2022-11-18T06:03:17;99824.61;;;10.83;52.03
47742;BME280;33504;52.066;6.096;2022-11-18T06:05:47;99825.87;;;10.88;52.33
47742;BME280;33504;52.066;6.096;2022-11-18T06:08:17;99827.03;;;11.25;52.10
47742;BME280;33504;52.066;6.096;2022-11-18T06:10:45;99831.96;;;10.84;52.39
47742;BME280;33504;52.066;6.096;2022-11-18T06:13:17;99833.61;;;11.52;52.16
47742;BME280;33504;52.066;6.096;2022-11-18T06:15:46;99835.91;;;11.03;52.23
47742;BME280;33504;52.066;6.096;2022-11-18T06:18:17;99838.65;;;11.03;52.16
47742;BME280;33504;52.066;6.096;2022-11-18T06:20:47;99839.64;;;10.67;52.79
47742;BME280;33504;52.066;6.096;2022-11-18T06:23:14;99844.19;;;10.81;52.60
47742;BME280;33504;52.066;6.096;2022-11-18T06:25:41;99849.57;;;10.68;52.79
47742;BME280;33504;52.066;6.096;2022-11-18T06:28:09;99856.40;;;10.98;52.25
47742;BME280;33504;52.066;6.096;2022-11-18T06:30:38;99860.41;;;10.92;52.23
47742;BME280;33504;52.066;6.096;2022-11-18T06:33:05;99862.92;;;11.23;52.88
47742;BME280;33504;52.066;6.096;2022-11-18T06:35:32;99866.62;;;10.98;52.78
47742;BME280;33504;52.066;6.096;2022-11-18T06:37:59;99871.76;;;10.43;53.37
47742;BME280;33504;52.066;6.096;2022-11-18T06:40:26;99875.87;;;10.76;53.04
47742;BME280;33504;52.066;6.096;2022-11-18T06:42:53;99880.50;;;11.29;52.48
47742;BME280;33504;52.066;6.096;2022-11-18T06:45:20;99885.35;;;11.12;52.75
47742;BME280;33504;52.066;6.096;2022-11-18T06:47:47;99889.91;;;10.70;52.69
47742;BME280;33504;52.066;6.096;2022-11-18T06:50:14;99890.26;;;10.92;52.74
47742;BME280;33504;52.066;6.096;2022-11-18T06:52:41;99890.71;;;10.94;52.19
47742;BME280;33504;52.066;6.096;2022-11-18T06:55:08;99893.72;;;10.85;52.21
47742;BME280;33504;52.066;6.096;2022-11-18T06:57:36;99896.77;;;11.10;52.23
47742;BME280;33504;52.066;6.096;2022-11-18T07:00:04;99902.88;;;10.90;52.25
47742;BME280;33504;52.066;6.096;2022-11-18T07:02:31;99909.25;;;10.83;52.29
47742;BME280;33504;52.066;6.096;2022-11-18T07:05:01;99914.24;;;11.11;51.87
47742;BME280;33504;52.066;6.096;2022-11-18T07:07:28;99919.97;;;11.18;51.77
47742;BME280;33504;52.066;6.096;2022-11-18T07:09:56;99923.76;;;11.08;51.85
47742;BME280;33504;52.066;6.096;2022-11-18T07:12:23;99927.83;;;11.25;51.56
47742;BME280;33504;52.066;6.096;2022-11-18T07:14:49;99929.77;;;11.36;51.40
47742;BME280;33504;52.066;6.096;2022-11-18T07:17:16;99935.88;;;11.20;51.52
47742;BME280;33504;52.066;6.096;2022-11-18T07:19:44;99938.01;;;11.27;51.50
47742;BME280;33504;52.066;6.096;2022-11-18T07:22:11;99940.04;;;11.25;51.47
47742;BME280;33504;52.066;6.096;2022-11-18T07:24:38;99947.30;;;10.95;52.12
47742;BME280;33504;52.066;6.096;2022-11-18T07:27:05;99950.95;;;11.05;51.88
47742;BME280;33504;52.066;6.096;2022-11-18T07:29:32;99953.61;;;11.08;51.88
47742;BME280;33504;52.066;6.096;2022-11-18T07:31:59;99959.15;;;11.24;51.58
47742;BME280;33504;52.066;6.096;2022-11-18T07:34:26;99960.88;;;11.16;51.70
47742;BME280;33504;52.066;6.096;2022-11-18T07:36:53;99968.43;;;10.90;52.16
47742;BME280;33504;52.066;6.096;2022-11-18T07:39:21;99964.88;;;11.18;51.86
47742;BME280;33504;52.066;6.096;2022-11-18T07:41:47;99966.38;;;11.06;52.16
47742;BME280;33504;52.066;6.096;2022-11-18T07:44:14;99967.05;;;11.15;51.92
47742;BME280;33504;52.066;6.096;2022-11-18T07:46:41;99970.24;;;11.19;51.76
47742;BME280;33504;52.066;6.096;2022-11-18T07:49:10;99974.08;;;11.10;52.07
47742;BME280;33504;52.066;6.096;2022-11-18T07:51:38;99974.76;;;11.17;51.83
47742;BME280;33504;52.066;6.096;2022-11-18T07:54:07;99978.87;;;11.12;52.07
47742;BME280;33504;52.066;6.096;2022-11-18T07:56:34;99977.07;;;11.29;51.91
47742;BME280;33504;52.066;6.096;2022-11-18T07:59:02;99983.99;;;11.40;51.90
47742;BME280;33504;52.066;6.096;2022-11-18T08:01:30;99990.00;;;11.48;51.69
47742;BME280;33504;52.066;6.096;2022-11-18T08:04:02;99994.92;;;11.43;51.80
47742;BME280;33504;52.066;6.096;2022-11-18T08:06:32;100000.98;;;10.81;52.76
47742;BME280;33504;52.066;6.096;2022-11-18T08:09:00;100007.55;;;11.18;52.15
47742;BME280;33504;52.066;6.096;2022-11-18T08:11:27;100013.29;;;10.97;52.34
47742;BME280;33504;52.066;6.096;2022-11-18T08:13:54;100016.36;;;10.83;52.43
47742;BME280;33504;52.066;6.096;2022-11-18T08:16:23;100018.21;;;10.92;52.44
47742;BME280;33504;52.066;6.096;2022-11-18T08:18:51;100020.83;;;11.14;51.96
47742;BME280;33504;52.066;6.096;2022-11-18T08:21:20;100026.79;;;10.89;52.28
47742;BME280;33504;52.066;6.096;2022-11-18T08:23:50;100023.91;;;10.94;51.91
47742;BME280;33504;52.066;6.096;2022-11-18T08:26:17;100028.66;;;10.90;52.06
47742;BME280;33504;52.066;6.096;2022-11-18T08:28:45;100023.55;;;11.35;51.93
47742;BME280;33504;52.066;6.096;2022-11-18T08:31:15;100027.41;;;11.55;51.78
47742;BME280;33504;52.066;6.096;2022-11-18T08:33:42;100031.64;;;11.82;50.92
47742;BME280;33504;52.066;6.096;2022-11-18T08:36:13;100035.98;;;11.91;50.33
47742;BME280;33504;52.066;6.096;2022-11-18T08:38:40;100040.08;;;12.02;50.16
47742;BME280;33504;52.066;6.096;2022-11-18T08:41:10;100042.57;;;12.35;49.13
47742;BME280;33504;52.066;6.096;2022-11-18T08:43:38;100045.87;;;12.57;49.07
47742;BME280;33504;52.066;6.096;2022-11-18T08:46:05;100042.45;;;13.30;48.14
47742;BME280;33504;52.066;6.096;2022-11-18T08:48:32;100045.54;;;13.48;47.07
47742;BME280;33504;52.066;6.096;2022-11-18T08:50:59;100050.18;;;13.12;46.86
47742;BME280;33504;52.066;6.096;2022-11-18T08:53:26;100053.09;;;12.99;47.00
47742;BME280;33504;52.066;6.096;2022-11-18T08:55:55;100054.79;;;12.67;47.22
47742;BME280;33504;52.066;6.096;2022-11-18T08:58:22;100054.02;;;12.75;47.60
47742;BME280;33504;52.066;6.096;2022-11-18T09:00:49;100057.72;;;12.45;48.21
47742;BME280;33504;52.066;6.096;2022-11-18T09:03:16;100058.21;;;13.02;47.60
47742;BME280;33504;52.066;6.096;2022-11-18T09:05:43;100057.28;;;13.85;46.68
47742;BME280;33504;52.066;6.096;2022-11-18T09:08:11;100060.77;;;13.95;45.38
47742;BME280;33504;52.066;6.096;2022-11-18T09:10:37;100066.65;;;14.80;44.59
47742;BME280;33504;52.066;6.096;2022-11-18T09:13:05;100065.83;;;15.75;43.11
47742;BME280;33504;52.066;6.096;2022-11-18T09:15:31;100062.84;;;15.79;41.96
47742;BME280;33504;52.066;6.096;2022-11-18T09:17:58;100068.76;;;15.52;41.78
47742;BME280;33504;52.066;6.096;2022-11-18T09:20:25;100073.64;;;14.92;42.40
47742;BME280;33504;52.066;6.096;2022-11-18T09:22:52;100075.85;;;14.20;43.33
47742;BME280;33504;52.066;6.096;2022-11-18T09:25:18;100078.44;;;14.28;44.00
47742;BME280;33504;52.066;6.096;2022-11-18T09:27:45;100080.17;;;14.11;44.52
47742;BME280;33504;52.066;6.096;2022-11-18T09:30:12;100080.06;;;13.92;44.89
47742;BME280;33504;52.066;6.096;2022-11-18T09:32:39;100081.99;;;14.00;44.93
47742;BME280;33504;52.066;6.096;2022-11-18T09:35:07;100088.09;;;13.03;45.60
47742;BME280;33504;52.066;6.096;2022-11-18T09:37:34;100092.43;;;12.55;46.84
47742;BME280;33504;52.066;6.096;2022-11-18T09:40:00;100092.95;;;12.72;46.73
47742;BME280;33504;52.066;6.096;2022-11-18T09:42:38;100096.34;;;13.08;46.19
47742;BME280;33504;52.066;6.096;2022-11-18T09:45:15;100101.87;;;13.31;46.58
47742;BME280;33504;52.066;6.096;2022-11-18T09:47:45;100108.19;;;12.99;46.60
47742;BME280;33504;52.066;6.096;2022-11-18T09:50:19;100108.82;;;13.62;46.09
47742;BME280;33504;52.066;6.096;2022-11-18T09:53:00;100109.42;;;14.13;45.64
47742;BME280;33504;52.066;6.096;2022-11-18T09:55:30;100114.57;;;15.14;43.40
47742;BME280;33504;52.066;6.096;2022-11-18T09:58:00;100118.35;;;15.28;41.35
47742;BME280;33504;52.066;6.096;2022-11-18T10:00:29;100120.84;;;16.01;40.80
47742;BME280;33504;52.066;6.096;2022-11-18T10:02:59;100124.67;;;15.63;40.12
47742;BME280;33504;52.066;6.096;2022-11-18T10:05:28;100129.58;;;15.41;41.40
47742;BME280;33504;52.066;6.096;2022-11-18T10:08:03;100134.63;;;15.24;41.63
47742;BME280;33504;52.066;6.096;2022-11-18T10:10:44;100137.08;;;14.28;42.76
47742;BME280;33504;52.066;6.096;2022-11-18T10:13:23;100137.33;;;14.74;41.94
47742;BME280;33504;52.066;6.096;2022-11-18T10:16:00;100144.15;;;15.50;41.65
47742;BME280;33504;52.066;6.096;2022-11-18T10:18:35;100147.46;;;15.41;41.69
47742;BME280;33504;52.066;6.096;2022-11-18T10:21:14;100143.15;;;16.11;40.55
47742;BME280;33504;52.066;6.096;2022-11-18T10:23:49;100148.07;;;15.11;41.09
47742;BME280;33504;52.066;6.096;2022-11-18T10:26:31;100147.15;;;16.12;40.07
47742;BME280;33504;52.066;6.096;2022-11-18T10:28:59;100144.68;;;15.98;40.94
47742;BME280;33504;52.066;6.096;2022-11-18T10:31:26;100148.28;;;16.64;40.00
47742;BME280;33504;52.066;6.096;2022-11-18T10:33:58;100147.13;;;16.95;38.66
47742;BME280;33504;52.066;6.096;2022-11-18T10:36:27;100147.54;;;16.23;38.91
47742;BME280;33504;52.066;6.096;2022-11-18T10:39:06;100151.96;;;15.39;39.94
47742;BME280;33504;52.066;6.096;2022-11-18T10:41:38;100161.06;;;15.43;40.38
47742;BME280;33504;52.066;6.096;2022-11-18T10:44:28;100161.42;;;15.10;41.05
47742;BME280;33504;52.066;6.096;2022-11-18T10:46:59;100158.11;;;15.31;41.43
47742;BME280;33504;52.066;6.096;2022-11-18T10:49:40;100156.32;;;15.37;40.05
47742;BME280;33504;52.066;6.096;2022-11-18T10:52:10;100162.36;;;16.35;39.66
47742;BME280;33504;52.066;6.096;2022-11-18T10:54:37;100165.01;;;15.96;38.86
47742;BME280;33504;52.066;6.096;2022-11-18T10:57:11;100168.14;;;15.47;39.93
47742;BME280;33504;52.066;6.096;2022-11-18T10:59:45;100168.38;;;15.08;40.87
47742;BME280;33504;52.066;6.096;2022-11-18T11:02:16;100171.22;;;15.91;40.28
47742;BME280;33504;52.066;6.096;2022-11-18T11:04:45;100172.56;;;16.01;39.62
47742;BME280;33504;52.066;6.096;2022-11-18T11:07:15;100172.64;;;16.05;38.83
47742;BME280;33504;52.066;6.096;2022-11-18T11:09:44;100170.09;;;16.60;37.95
47742;BME280;33504;52.066;6.096;2022-11-18T11:12:26;100169.40;;;17.05;37.01
47742;BME280;33504;52.066;6.096;2022-11-18T11:14:56;100171.37;;;17.50;37.18
47742;BME280;33504;52.066;6.096;2022-11-18T11:17:29;100171.96;;;17.56;36.97
47742;BME280;33504;52.066;6.096;2022-11-18T11:20:03;100169.74;;;17.50;36.27
47742;BME280;33504;52.066;6.096;2022-11-18T11:22:31;100174.53;;;17.41;36.70
47742;BME280;33504;52.066;6.096;2022-11-18T11:24:58;100172.85;;;17.46;36.51
47742;BME280;33504;52.066;6.096;2022-11-18T11:27:41;100177.47;;;17.05;36.45
47742;BME280;33504;52.066;6.096;2022-11-18T11:30:16;100180.16;;;17.43;36.90
47742;BME280;33504;52.066;6.096;2022-11-18T11:32:59;100181.79;;;17.17;36.64
47742;BME280;33504;52.066;6.096;2022-11-18T11:35:33;100184.93;;;17.52;36.88
47742;BME280;33504;52.066;6.096;2022-11-18T11:38:10;100184.27;;;17.39;36.87
47742;BME280;33504;52.066;6.096;2022-11-18T11:40:47;100182.59;;;17.21;37.25
47742;BME280;33504;52.066;6.096;2022-11-18T11:43:30;100190.32;;;16.54;37.98
47742;BME280;33504;52.066;6.096;2022-11-18T11:46:10;100191.02;;;15.97;38.41
47742;BME280;33504;52.066;6.096;2022-11-18T11:48:55;100196.08;;;15.88;39.18
47742;BME280;33504;52.066;6.096;2022-11-18T11:51:30;100194.35;;;14.98;40.28
47742;BME280;33504;52.066;6.096;2022-11-18T11:54:10;100196.11;;;14.93;40.57
47742;BME280;33504;52.066;6.096;2022-11-18T11:56:46;100200.23;;;14.58;41.26
47742;BME280;33504;52.066;6.096;2022-11-18T11:59:22;100201.91;;;14.79;41.53
47742;BME280;33504;52.066;6.096;2022-11-18T12:01:59;100199.66;;;14.36;41.57
47742;BME280;33504;52.066;6.096;2022-11-18T12:04:40;100199.82;;;13.75;42.60
47742;BME280;33504;52.066;6.096;2022-11-18T12:07:15;100199.38;;;13.76;43.01
47742;BME280;33504;52.066;6.096;2022-11-18T12:09:56;100201.63;;;13.33;44.14
47742;BME280;33504;52.066;6.096;2022-11-18T12:12:33;100200.37;;;13.77;43.82
47742;BME280;33504;52.066;6.096;2022-11-18T12:15:15;100206.94;;;13.85;44.12
47742;BME280;33504;52.066;6.096;2022-11-18T12:17:53;100204.49;;;12.93;45.16
47742;BME280;33504;52.066;6.096;2022-11-18T12:20:42;100204.37;;;13.87;43.85
47742;BME280;33504;52.066;6.096;2022-11-18T12:23:14;100199.71;;;13.60;44.07
47742;BME280;33504;52.066;6.096;2022-11-18T12:25:50;100201.92;;;13.74;44.17
47742;BME280;33504;52.066;6.096;2022-11-18T12:28:23;100195.19;;;13.74;43.68
47742;BME280;33504;52.066;6.096;2022-11-18T12:31:26;100201.01;;;13.88;44.23
47742;BME280;33504;52.066;6.096;2022-11-18T12:33:59;100205.55;;;13.99;43.72
47742;BME280;33504;52.066;6.096;2022-11-18T12:36:29;100208.03;;;14.47;43.11
47742;BME280;33504;52.066;6.096;2022-11-18T12:38:57;100207.57;;;14.67;43.70
47742;BME280;33504;52.066;6.096;2022-11-18T12:41:58;100210.88;;;15.37;43.61
47742;BME280;33504;52.066;6.096;2022-11-18T12:44:27;100212.51;;;15.05;41.72
47742;BME280;33504;52.066;6.096;2022-11-18T12:46:55;100218.22;;;14.97;41.36
47742;BME280;33504;52.066;6.096;2022-11-18T12:50:11;100220.56;;;15.59;41.00
47742;BME280;33504;52.066;6.096;2022-11-18T12:52:49;100222.55;;;15.20;41.81
47742;BME280;33504;52.066;6.096;2022-11-18T12:55:20;100225.69;;;14.98;41.93
47742;BME280;33504;52.066;6.096;2022-11-18T12:57:48;100228.52;;;14.94;41.59
47742;BME280;33504;52.066;6.096;2022-11-18T13:00:18;100233.34;;;14.68;42.13
47742;BME280;33504;52.066;6.096;2022-11-18T13:02:54;100236.42;;;14.14;42.67
47742;BME280;33504;52.066;6.096;2022-11-18T13:05:24;100236.46;;;14.44;42.96
47742;BME280;33504;52.066;6.096;2022-11-18T13:07:55;100242.74;;;13.93;43.32
47742;BME280;33504;52.066;6.096;2022-11-18T13:10:26;100239.09;;;13.93;43.13
47742;BME280;33504;52.066;6.096;2022-11-18T13:12:54;100236.22;;;14.04;43.97